createdAt,value
2023-05-11T00:01:36.998Z,1.48
2023-05-11T00:04:03.792Z,1.20
2023-05-11T00:06:30.585Z,1.33
2023-05-11T00:08:57.323Z,1.40
2023-05-11T00:11:24.132Z,1.30
2023-05-11T00:13:50.941Z,1.30
2023-05-11T00:16:17.901Z,1.58
2023-05-11T00:18:45.023Z,1.40
2023-05-11T00:21:11.801Z,1.67
2023-05-11T00:23:38.510Z,1.30
2023-05-11T00:26:05.655Z,1.30
2023-05-11T00:28:32.420Z,1.67
2023-05-11T00:30:59.195Z,1.50
2023-05-11T00:33:26.173Z,1.60
2023-05-11T00:35:52.997Z,1.73
2023-05-11T00:38:19.809Z,1.30
2023-05-11T00:40:46.567Z,1.50
2023-05-11T00:43:13.462Z,1.60
2023-05-11T00:45:40.588Z,1.40
2023-05-11T00:48:07.663Z,1.15
2023-05-11T00:50:35.691Z,1.17
2023-05-11T00:53:03.149Z,1.42
2023-05-11T00:55:30.813Z,1.27
2023-05-11T00:57:57.688Z,1.15
2023-05-11T01:00:24.625Z,1.35
2023-05-11T01:02:51.825Z,1.38
2023-05-11T01:05:18.746Z,1.20
2023-05-11T01:07:59.903Z,1.33
2023-05-11T01:10:48.861Z,1.30
2023-05-11T01:13:30.895Z,1.40
2023-05-11T01:15:57.898Z,1.20
2023-05-11T01:18:43.850Z,1.45
2023-05-11T01:21:11.955Z,1.25
2023-05-11T01:24:09.547Z,1.00
2023-05-11T01:26:55.617Z,1.30
2023-05-11T01:29:25.469Z,1.10
2023-05-11T01:31:55.466Z,1.20
2023-05-11T01:34:26.352Z,1.10
2023-05-11T01:36:59.359Z,1.05
2023-05-11T01:39:35.001Z,1.00
2023-05-11T01:42:11.161Z,1.40
2023-05-11T01:44:39.973Z,1.13
2023-05-11T01:47:08.629Z,1.20
2023-05-11T01:49:38.795Z,1.13
2023-05-11T01:52:08.364Z,1.30
2023-05-11T01:54:37.037Z,0.90
2023-05-11T01:57:05.084Z,1.15
2023-05-11T01:59:33.390Z,1.10
2023-05-11T02:02:01.358Z,0.95
2023-05-11T02:04:29.844Z,1.00
2023-05-11T02:06:59.029Z,1.00
2023-05-11T02:09:26.741Z,1.13
2023-05-11T02:11:55.808Z,1.05
2023-05-11T02:14:24.754Z,1.15
2023-05-11T02:16:53.217Z,1.02
2023-05-11T02:19:21.248Z,1.20
2023-05-11T02:21:49.247Z,1.05
2023-05-11T02:24:17.018Z,1.10
2023-05-11T02:26:43.714Z,1.10
2023-05-11T02:29:10.522Z,1.00
2023-05-11T02:31:42.908Z,1.17
2023-05-11T02:34:24.687Z,0.90
2023-05-11T02:36:55.717Z,1.00
2023-05-11T02:39:27.027Z,0.90
2023-05-11T02:41:58.292Z,1.00
2023-05-11T02:44:31.509Z,1.00
2023-05-11T02:47:02.514Z,0.90
2023-05-11T02:49:32.247Z,1.10
2023-05-11T02:52:01.487Z,0.90
2023-05-11T02:54:29.899Z,0.88
2023-05-11T02:56:57.401Z,0.80
2023-05-11T02:59:24.903Z,0.88
2023-05-11T03:01:52.804Z,0.82
2023-05-11T03:04:19.673Z,0.73
2023-05-11T03:06:46.601Z,1.00
2023-05-11T03:09:13.614Z,0.90
2023-05-11T03:11:41.504Z,0.90
2023-05-11T03:14:09.570Z,0.88
2023-05-11T03:16:37.713Z,0.68
2023-05-11T03:19:07.008Z,0.82
2023-05-11T03:21:35.838Z,0.82
2023-05-11T03:24:03.434Z,0.88
2023-05-11T03:26:32.020Z,0.73
2023-05-11T03:29:00.914Z,1.10
2023-05-11T03:31:27.915Z,0.80
2023-05-11T03:33:54.964Z,0.70
2023-05-11T03:36:24.148Z,1.20
2023-05-11T03:38:52.816Z,0.93
2023-05-11T03:41:21.488Z,0.80
2023-05-11T03:43:51.838Z,0.80
2023-05-11T03:48:48.080Z,0.80
2023-05-11T03:51:15.258Z,0.90
2023-05-11T03:53:42.102Z,0.88
2023-05-11T03:56:09.066Z,0.90
2023-05-11T03:58:42.844Z,0.60
2023-05-11T04:01:10.392Z,0.70
2023-05-11T04:03:51.624Z,0.60
2023-05-11T04:06:19.310Z,0.52
2023-05-11T04:08:46.165Z,0.77
2023-05-11T04:11:12.879Z,0.70
2023-05-11T04:13:39.795Z,0.70
2023-05-11T04:16:07.049Z,0.70
2023-05-11T04:18:33.872Z,0.70
2023-05-11T04:21:01.226Z,0.80
2023-05-11T04:23:27.943Z,0.70
2023-05-11T04:25:55.899Z,0.70
2023-05-11T04:28:23.942Z,0.70
2023-05-11T04:30:55.188Z,0.77
2023-05-11T04:33:22.090Z,0.77
2023-05-11T04:35:53.062Z,0.80
2023-05-11T04:38:20.839Z,0.55
2023-05-11T04:40:48.039Z,0.47
2023-05-11T04:43:15.414Z,0.65
2023-05-11T04:45:46.888Z,0.47
2023-05-11T04:48:13.880Z,0.70
2023-05-11T04:50:40.713Z,1.10
2023-05-11T04:53:07.486Z,0.50
2023-05-11T04:55:34.236Z,0.73
2023-05-11T04:58:01.071Z,0.60
2023-05-11T05:00:27.983Z,0.70
2023-05-11T05:02:54.729Z,0.82
2023-05-11T05:05:21.629Z,0.70
2023-05-11T05:07:48.345Z,0.50
2023-05-11T05:10:15.103Z,0.60
2023-05-11T05:12:41.916Z,0.60
2023-05-11T05:15:09.656Z,0.50
2023-05-11T05:17:36.427Z,0.68
2023-05-11T05:20:04.644Z,0.60
2023-05-11T05:22:32.023Z,0.60
2023-05-11T05:24:58.822Z,0.70
2023-05-11T05:27:25.673Z,0.50
2023-05-11T05:29:52.553Z,0.80
2023-05-11T05:32:19.574Z,0.60
2023-05-11T05:34:49.152Z,0.70
2023-05-11T05:37:15.874Z,0.77
2023-05-11T05:39:42.645Z,0.63
2023-05-11T05:42:09.401Z,0.70
2023-05-11T05:44:36.156Z,0.65
2023-05-11T05:47:02.858Z,0.60
2023-05-11T05:49:29.591Z,0.60
2023-05-11T05:51:56.526Z,0.55
2023-05-11T05:54:23.258Z,0.60
2023-05-11T05:56:51.125Z,0.52
2023-05-11T05:59:21.121Z,0.45
2023-05-11T06:01:48.020Z,0.70
2023-05-11T06:04:15.228Z,0.60
2023-05-11T06:06:42.120Z,0.70
2023-05-11T06:09:09.284Z,1.00
2023-05-11T06:11:36.087Z,0.75
2023-05-11T06:14:03.030Z,0.50
2023-05-11T06:16:30.630Z,0.60
2023-05-11T06:18:57.513Z,1.00
2023-05-11T06:21:24.621Z,0.77
2023-05-11T06:23:51.432Z,0.70
2023-05-11T06:26:18.364Z,0.80
2023-05-11T06:28:45.071Z,0.50
2023-05-11T06:31:12.723Z,0.70
2023-05-11T06:33:39.530Z,0.50
2023-05-11T06:36:06.930Z,0.85
2023-05-11T06:38:33.737Z,0.63
2023-05-11T06:41:00.533Z,0.70
2023-05-11T06:43:27.329Z,0.77
2023-05-11T06:45:54.064Z,0.73
2023-05-11T06:48:23.463Z,0.80
2023-05-11T06:50:50.352Z,0.93
2023-05-11T06:53:17.970Z,0.90
2023-05-11T06:55:44.844Z,1.02
2023-05-11T06:58:11.784Z,1.20
2023-05-11T07:00:39.052Z,1.00
2023-05-11T07:03:06.298Z,1.10
2023-05-11T07:05:33.428Z,1.02
2023-05-11T07:08:00.165Z,1.10
2023-05-11T07:10:27.003Z,1.00
2023-05-11T07:12:53.749Z,1.00
2023-05-11T07:15:20.753Z,1.00
2023-05-11T07:17:47.872Z,1.25
2023-05-11T07:20:14.914Z,1.02
2023-05-11T07:22:41.858Z,1.20
2023-05-11T07:25:11.874Z,1.10
2023-05-11T07:27:38.787Z,1.15
2023-05-11T07:30:06.188Z,0.80
2023-05-11T07:32:33.246Z,0.77
2023-05-11T07:35:00.015Z,1.00
2023-05-11T07:37:26.997Z,0.95
2023-05-11T07:39:54.415Z,0.90
2023-05-11T07:42:21.249Z,0.98
2023-05-11T07:44:48.057Z,0.98
2023-05-11T07:47:14.818Z,0.90
2023-05-11T07:49:44.037Z,0.80
2023-05-11T07:52:11.675Z,0.80
2023-05-11T07:54:40.204Z,0.98
2023-05-11T07:57:07.192Z,0.80
2023-05-11T07:59:33.978Z,0.80
2023-05-11T08:02:00.818Z,0.70
2023-05-11T08:04:28.065Z,0.60
2023-05-11T08:06:54.828Z,0.60
2023-05-11T08:09:22.571Z,0.70
2023-05-11T08:11:49.871Z,0.90
2023-05-11T08:14:17.193Z,0.57
2023-05-11T08:16:44.187Z,0.70
2023-05-11T08:19:11.731Z,0.68
2023-05-11T08:21:38.613Z,0.60
2023-05-11T08:24:06.067Z,0.65
2023-05-11T08:26:33.464Z,0.80
2023-05-11T08:29:00.314Z,0.60
2023-05-11T08:31:27.179Z,0.70
2023-05-11T08:33:54.053Z,0.52
2023-05-11T08:36:21.400Z,0.60
2023-05-11T08:38:48.429Z,0.77
2023-05-11T08:41:15.528Z,0.60
2023-05-11T08:43:45.664Z,0.60
2023-05-11T08:46:17.752Z,0.60
2023-05-11T08:48:44.800Z,0.82
2023-05-11T08:51:11.571Z,0.50
2023-05-11T08:53:38.832Z,0.57
2023-05-11T08:56:08.528Z,0.65
2023-05-11T08:58:37.513Z,0.60
2023-05-11T09:01:08.150Z,0.43
2023-05-11T09:03:37.162Z,0.50
2023-05-11T09:06:07.238Z,0.52
2023-05-11T09:08:38.134Z,0.45
2023-05-11T09:11:06.398Z,0.75
2023-05-11T09:13:33.413Z,0.47
2023-05-11T09:16:00.241Z,0.40
2023-05-11T09:18:27.603Z,0.40
2023-05-11T09:20:54.738Z,0.40
2023-05-11T09:23:26.804Z,0.40
2023-05-11T09:25:54.240Z,0.40
2023-05-11T09:28:25.682Z,0.52
2023-05-11T09:30:53.372Z,0.60
2023-05-11T09:33:25.686Z,0.60
2023-05-11T09:35:53.389Z,0.70
2023-05-11T09:38:23.017Z,0.50
2023-05-11T09:40:56.537Z,0.50
2023-05-11T09:43:31.002Z,0.60
2023-05-11T09:46:06.999Z,0.50
2023-05-11T09:48:35.196Z,0.60
2023-05-11T09:51:07.318Z,0.60
2023-05-11T09:53:43.358Z,0.60
2023-05-11T09:56:11.822Z,0.35
2023-05-11T09:58:57.275Z,0.50
2023-05-11T10:01:32.708Z,0.55
2023-05-11T10:04:17.654Z,0.47
2023-05-11T10:06:53.576Z,0.50
2023-05-11T10:09:24.839Z,0.68
2023-05-11T10:11:52.931Z,0.52
2023-05-11T10:14:19.739Z,0.75
2023-05-11T10:16:47.434Z,0.80
2023-05-11T10:19:14.716Z,0.60
2023-05-11T10:21:41.611Z,0.63
2023-05-11T10:24:08.778Z,0.55
2023-05-11T10:26:36.181Z,0.60
2023-05-11T10:29:03.719Z,0.60
2023-05-11T10:31:32.939Z,0.70
2023-05-11T10:34:01.220Z,0.80
2023-05-11T10:36:28.260Z,0.88
2023-05-11T10:38:55.009Z,0.75
2023-05-11T10:41:24.576Z,0.70
2023-05-11T10:44:32.207Z,1.03
2023-05-11T10:47:14.677Z,0.95
2023-05-11T10:50:18.554Z,0.90
2023-05-11T10:53:22.240Z,0.80
2023-05-11T10:56:22.845Z,0.70
2023-05-11T10:59:18.875Z,1.00
2023-05-11T11:01:46.597Z,0.77
2023-05-11T11:04:14.269Z,0.50
2023-05-11T11:06:43.066Z,1.15
2023-05-11T11:09:13.538Z,0.90
2023-05-11T11:14:10.186Z,1.35
2023-05-11T11:16:38.901Z,0.90
2023-05-11T11:19:41.425Z,0.80
2023-05-11T11:22:38.674Z,0.73
2023-05-11T11:25:06.961Z,0.60
2023-05-11T11:27:48.789Z,0.90
2023-05-11T11:30:19.431Z,0.73
2023-05-11T11:32:52.064Z,0.50
2023-05-11T11:35:41.329Z,0.70
2023-05-11T11:38:19.368Z,0.80
2023-05-11T11:40:54.088Z,0.95
2023-05-11T11:43:23.608Z,0.95
2023-05-11T11:45:56.982Z,1.07
2023-05-11T11:48:38.117Z,0.90
2023-05-11T11:51:13.140Z,1.00
2023-05-11T11:53:41.236Z,1.17
2023-05-11T11:56:14.096Z,1.00
2023-05-11T11:58:44.404Z,1.00
2023-05-11T12:03:43.553Z,0.80
2023-05-11T12:06:12.170Z,0.70
2023-05-11T12:08:40.990Z,0.60
2023-05-11T12:11:08.036Z,0.60
2023-05-11T12:13:35.749Z,0.70
2023-05-11T12:16:16.443Z,0.65
2023-05-11T12:18:53.004Z,0.70
2023-05-11T12:21:27.554Z,0.50
2023-05-11T12:23:56.415Z,0.70
2023-05-11T12:26:26.428Z,0.40
2023-05-11T12:29:11.261Z,0.57
2023-05-11T12:31:39.583Z,0.60
2023-05-11T12:34:06.900Z,0.63
2023-05-11T12:36:34.883Z,1.00
2023-05-11T12:39:01.660Z,0.68
2023-05-11T12:41:28.433Z,0.93
2023-05-11T12:43:56.106Z,0.80
2023-05-11T12:46:23.851Z,0.85
2023-05-11T12:48:52.548Z,1.00
2023-05-11T12:51:56.967Z,1.27
2023-05-11T12:54:34.842Z,1.17
2023-05-11T12:57:02.984Z,1.10
2023-05-11T12:59:32.779Z,0.90
2023-05-11T13:02:10.350Z,1.00
2023-05-11T13:04:38.557Z,0.80
2023-05-11T13:07:05.411Z,0.80
2023-05-11T13:09:32.196Z,0.60
2023-05-11T13:12:18.182Z,0.90
2023-05-11T13:14:49.746Z,0.80
2023-05-11T13:17:39.999Z,0.70
2023-05-11T13:20:26.324Z,1.00
2023-05-11T13:23:10.774Z,0.90
2023-05-11T13:25:48.209Z,1.10
2023-05-11T13:28:16.429Z,1.00
2023-05-11T13:30:43.774Z,1.10
2023-05-11T13:33:10.573Z,1.05
2023-05-11T13:35:41.689Z,0.75
2023-05-11T13:38:09.479Z,0.77
2023-05-11T13:40:36.412Z,0.70
2023-05-11T13:43:03.168Z,0.80
2023-05-11T13:45:30.433Z,0.95
2023-05-11T13:47:57.294Z,0.95
2023-05-11T13:50:26.059Z,0.80
2023-05-11T13:52:53.711Z,0.90
2023-05-11T13:55:21.123Z,0.60
2023-05-11T13:57:48.876Z,0.80
2023-05-11T14:00:16.199Z,0.88
2023-05-11T14:02:44.182Z,0.80
2023-05-11T14:05:11.379Z,0.63
2023-05-11T14:07:46.839Z,0.40
2023-05-11T14:10:14.723Z,0.50
2023-05-11T14:12:41.804Z,0.50
2023-05-11T14:15:09.162Z,0.75
2023-05-11T14:17:36.115Z,1.00
2023-05-11T14:20:03.914Z,1.00
2023-05-11T14:22:30.794Z,1.02
2023-05-11T14:24:57.546Z,1.00
2023-05-11T14:27:24.296Z,1.15
2023-05-11T14:29:52.180Z,0.85
2023-05-11T14:32:19.481Z,0.80
2023-05-11T14:34:46.896Z,0.90
2023-05-11T14:37:14.260Z,0.60
2023-05-11T14:39:41.452Z,0.55
2023-05-11T14:42:08.467Z,0.80
2023-05-11T14:44:35.305Z,0.70
2023-05-11T14:47:02.245Z,0.68
2023-05-11T14:49:28.990Z,0.80
2023-05-11T14:51:56.668Z,0.63
2023-05-11T14:54:23.579Z,0.75
2023-05-11T14:56:54.017Z,0.70
2023-05-11T14:59:24.224Z,0.40
2023-05-11T15:01:51.358Z,0.85
2023-05-11T15:04:19.560Z,0.70
2023-05-11T15:06:46.551Z,0.75
2023-05-11T15:09:13.602Z,0.73
2023-05-11T15:11:40.532Z,0.73
2023-05-11T15:14:07.465Z,0.60
2023-05-11T15:16:34.354Z,0.50
2023-05-11T15:19:01.517Z,0.90
2023-05-11T15:21:28.347Z,0.77
2023-05-11T15:23:55.078Z,1.08
2023-05-11T15:26:22.810Z,1.20
2023-05-11T15:28:49.967Z,1.00
2023-05-11T15:31:16.945Z,0.90
2023-05-11T15:33:44.665Z,1.20
2023-05-11T15:36:13.093Z,1.25
2023-05-11T15:38:40.184Z,1.20
2023-05-11T15:41:07.668Z,1.50
2023-05-11T15:43:34.740Z,1.35
2023-05-11T15:46:03.662Z,1.15
2023-05-11T15:48:30.695Z,0.77
2023-05-11T15:50:59.654Z,1.30
2023-05-11T15:53:26.899Z,1.40
2023-05-11T15:55:55.420Z,1.00
2023-05-11T15:58:23.096Z,1.20
2023-05-11T16:00:50.170Z,1.27
2023-05-11T16:03:17.553Z,1.30
2023-05-11T16:05:44.848Z,1.15
2023-05-11T16:08:12.045Z,1.33
2023-05-11T16:10:39.048Z,1.58
2023-05-11T16:13:05.965Z,1.40
2023-05-11T16:15:32.980Z,1.50
2023-05-11T16:18:01.555Z,1.33
2023-05-11T16:20:30.633Z,1.20
2023-05-11T16:22:57.418Z,1.38
2023-05-11T16:25:24.321Z,1.45
2023-05-11T16:27:51.098Z,1.30
2023-05-11T16:30:22.956Z,1.35
2023-05-11T16:32:52.244Z,1.50
2023-05-11T16:35:19.238Z,1.23
2023-05-11T16:37:47.719Z,1.60
2023-05-11T16:40:15.043Z,1.38
2023-05-11T16:42:42.335Z,1.38
2023-05-11T16:45:09.661Z,1.23
2023-05-11T16:47:36.458Z,1.35
2023-05-11T16:50:03.688Z,1.08
2023-05-11T16:52:30.566Z,1.15
2023-05-11T16:54:58.962Z,1.15
2023-05-11T16:57:26.778Z,1.10
2023-05-11T16:59:53.521Z,1.02
2023-05-11T17:02:21.190Z,1.40
2023-05-11T17:04:48.074Z,1.10
2023-05-11T17:07:15.702Z,1.25
2023-05-11T17:09:43.291Z,1.08
2023-05-11T17:12:10.700Z,1.10
2023-05-11T17:14:37.627Z,1.20
2023-05-11T17:17:06.858Z,1.40
2023-05-11T17:19:34.527Z,1.23
2023-05-11T17:22:01.329Z,1.15
2023-05-11T17:24:28.532Z,1.20
2023-05-11T17:26:55.521Z,1.35
2023-05-11T17:29:22.383Z,1.60
2023-05-11T17:31:51.683Z,1.60
2023-05-11T17:34:19.756Z,1.70
2023-05-11T17:36:47.916Z,1.65
2023-05-11T17:39:16.377Z,1.50
2023-05-11T17:41:43.577Z,1.65
2023-05-11T17:44:10.374Z,1.38
2023-05-11T17:46:37.271Z,1.42
2023-05-11T17:49:04.117Z,1.27
2023-05-11T17:51:31.228Z,0.95
2023-05-11T17:53:57.990Z,1.45
2023-05-11T17:56:24.753Z,1.75
2023-05-11T17:58:51.670Z,1.23
2023-05-11T18:01:19.662Z,1.42
2023-05-11T18:03:46.901Z,1.60
2023-05-11T18:06:14.642Z,1.70
2023-05-11T18:08:41.430Z,1.90
2023-05-11T18:11:10.808Z,2.63
2023-05-11T18:13:37.626Z,3.55
2023-05-11T18:16:04.935Z,4.00
2023-05-11T18:18:32.023Z,2.75
2023-05-11T18:21:03.769Z,2.70
2023-05-11T18:23:30.599Z,1.80
2023-05-11T18:25:57.469Z,1.73
2023-05-11T18:28:24.201Z,1.13
2023-05-11T18:30:50.970Z,1.30
2023-05-11T18:33:17.719Z,1.30
2023-05-11T18:35:44.475Z,1.50
2023-05-11T18:38:11.257Z,1.70
2023-05-11T18:40:38.091Z,1.60
2023-05-11T18:43:04.902Z,2.13
2023-05-11T18:45:33.969Z,1.80
2023-05-11T18:48:01.189Z,1.95
2023-05-11T18:50:29.668Z,2.15
2023-05-11T18:52:57.022Z,1.60
2023-05-11T18:55:24.345Z,1.95
2023-05-11T18:57:52.067Z,2.40
2023-05-11T19:00:20.419Z,2.00
2023-05-11T19:02:48.254Z,1.83
2023-05-11T19:05:15.278Z,2.28
2023-05-11T19:07:42.067Z,1.83
2023-05-11T19:10:09.259Z,1.73
2023-05-11T19:12:36.124Z,1.80
2023-05-11T19:15:02.985Z,1.90
2023-05-11T19:17:30.061Z,2.30
2023-05-11T19:19:56.958Z,1.80
2023-05-11T19:22:24.316Z,1.70
2023-05-11T19:24:51.019Z,1.80
2023-05-11T19:27:18.005Z,2.58
2023-05-11T19:29:44.833Z,2.45
2023-05-11T19:32:11.709Z,2.30
2023-05-11T19:34:38.593Z,2.90
2023-05-11T19:37:06.015Z,2.58
2023-05-11T19:39:33.361Z,2.50
2023-05-11T19:42:00.274Z,2.63
2023-05-11T19:44:27.280Z,2.60
2023-05-11T19:46:54.165Z,2.72
2023-05-11T19:49:21.067Z,3.30
2023-05-11T19:51:47.774Z,2.88
2023-05-11T19:54:15.410Z,2.70
2023-05-11T19:56:42.140Z,3.03
2023-05-11T19:59:08.884Z,2.88
2023-05-11T20:01:35.696Z,2.83
2023-05-11T20:04:02.724Z,2.58
2023-05-11T20:06:29.919Z,3.85
2023-05-11T20:08:56.945Z,2.70
2023-05-11T20:11:25.250Z,3.22
2023-05-11T20:13:53.431Z,2.67
2023-05-11T20:16:20.195Z,3.00
2023-05-11T20:18:47.308Z,2.80
2023-05-11T20:21:14.169Z,3.08
2023-05-11T20:23:40.948Z,3.15
2023-05-11T20:26:07.766Z,3.42
2023-05-11T20:28:34.535Z,3.10
2023-05-11T20:31:01.273Z,5.68
2023-05-11T20:35:58.298Z,3.55
2023-05-11T20:38:25.485Z,3.40
2023-05-11T20:40:59.439Z,3.00
2023-05-11T20:43:26.176Z,3.67
2023-05-11T20:45:53.027Z,3.88
2023-05-11T20:48:32.086Z,3.60
2023-05-11T20:51:03.064Z,3.50
2023-05-11T20:53:30.918Z,3.65
2023-05-11T20:55:57.670Z,4.25
2023-05-11T20:58:24.382Z,3.63
2023-05-11T21:00:51.511Z,3.58
2023-05-11T21:03:18.429Z,3.70
2023-05-11T21:05:45.326Z,3.75
2023-05-11T21:08:12.082Z,3.83
2023-05-11T21:10:38.794Z,3.80
2023-05-11T21:13:05.711Z,4.65
2023-05-11T21:15:32.591Z,4.85
2023-05-11T21:17:59.495Z,5.15
2023-05-11T21:20:26.241Z,4.60
2023-05-11T21:22:53.779Z,5.50
2023-05-11T21:25:20.536Z,4.93
2023-05-11T21:27:47.263Z,4.38
2023-05-11T21:30:14.024Z,4.70
2023-05-11T21:32:40.848Z,5.30
2023-05-11T21:35:08.009Z,6.32
2023-05-11T21:37:35.723Z,5.90
2023-05-11T21:40:03.008Z,6.20
2023-05-11T21:42:34.448Z,5.82
2023-05-11T21:45:02.819Z,6.07
2023-05-11T21:47:29.602Z,5.50
2023-05-11T21:49:57.973Z,5.90
2023-05-11T21:52:24.832Z,5.93
2023-05-11T21:54:51.575Z,6.35
2023-05-11T21:57:18.378Z,5.70
2023-05-11T21:59:45.114Z,5.60
2023-05-11T22:02:11.921Z,5.28
2023-05-11T22:04:38.680Z,5.20
2023-05-11T22:07:05.538Z,5.07
2023-05-11T22:09:32.535Z,4.72
2023-05-11T22:11:59.254Z,4.43
2023-05-11T22:14:26.290Z,4.68
2023-05-11T22:16:53.073Z,4.30
2023-05-11T22:19:19.805Z,4.68
2023-05-11T22:21:46.543Z,4.80
2023-05-11T22:24:13.685Z,4.65
2023-05-11T22:26:40.511Z,4.70
2023-05-11T22:29:07.383Z,4.43
2023-05-11T22:31:34.135Z,4.57
2023-05-11T22:34:00.930Z,4.68
2023-05-11T22:36:28.786Z,4.72
2023-05-11T22:38:55.525Z,4.72
2023-05-11T22:41:22.295Z,4.10
2023-05-11T22:43:49.019Z,4.40
2023-05-11T22:46:15.799Z,4.40
2023-05-11T22:48:42.601Z,4.53
2023-05-11T22:51:09.386Z,4.22
2023-05-11T22:53:36.141Z,3.97
2023-05-11T22:56:07.374Z,4.15
2023-05-11T22:58:34.259Z,4.50
2023-05-11T23:01:01.352Z,4.20
2023-05-11T23:03:28.633Z,3.72
2023-05-11T23:05:55.583Z,3.70
2023-05-11T23:08:22.921Z,4.07
2023-05-11T23:10:50.466Z,4.20
2023-05-11T23:13:17.673Z,4.18
2023-05-11T23:15:44.525Z,4.22
2023-05-11T23:18:11.630Z,3.75
2023-05-11T23:20:38.550Z,3.60
2023-05-11T23:23:05.346Z,3.90
2023-05-11T23:25:32.133Z,3.60
2023-05-11T23:27:59.226Z,4.63
2023-05-11T23:30:26.152Z,4.70
2023-05-11T23:32:52.978Z,4.40
2023-05-11T23:35:19.747Z,4.25
2023-05-11T23:37:46.457Z,4.22
2023-05-11T23:40:13.299Z,4.35
2023-05-11T23:42:40.050Z,4.40
2023-05-11T23:45:08.255Z,4.30
2023-05-11T23:47:35.539Z,4.10
2023-05-11T23:50:02.496Z,3.75
2023-05-11T23:52:29.682Z,3.90
2023-05-11T23:54:56.407Z,3.78
2023-05-11T23:57:23.137Z,3.47
2023-05-11T23:59:49.825Z,3.90
